createdAt,value
2019-01-25T00:00:13.618Z,98703.38
2019-01-25T00:02:42.005Z,98702.00
2019-01-25T00:05:10.826Z,98697.30
2019-01-25T00:07:39.211Z,98700.75
2019-01-25T00:10:10.958Z,98702.16
2019-01-25T00:12:39.360Z,98706.95
2019-01-25T00:15:10.692Z,98701.70
2019-01-25T00:17:39.072Z,98703.97
2019-01-25T00:20:12.408Z,98706.59
2019-01-25T00:22:40.802Z,98711.27
2019-01-25T00:25:09.645Z,98704.79
2019-01-25T00:27:38.029Z,98702.55
2019-01-25T00:30:15.077Z,98703.38
2019-01-25T00:32:43.460Z,98693.81
2019-01-25T00:35:12.300Z,98692.23
2019-01-25T00:37:40.754Z,98696.17
2019-01-25T00:40:12.329Z,98690.52
2019-01-25T00:42:40.703Z,98692.70
2019-01-25T00:45:10.634Z,98688.84
2019-01-25T00:47:39.083Z,98693.16
2019-01-25T00:50:10.534Z,98698.51
2019-01-25T00:52:38.919Z,98698.41
2019-01-25T00:55:08.946Z,98703.67
2019-01-25T00:57:37.512Z,98703.30
2019-01-25T01:00:14.752Z,98692.39
2019-01-25T01:02:43.140Z,98697.29
2019-01-25T01:05:12.059Z,98695.98
2019-01-25T01:07:40.455Z,98702.19
2019-01-25T01:10:14.170Z,98694.30
2019-01-25T01:12:41.412Z,98698.24
2019-01-25T01:15:12.835Z,98695.98
2019-01-25T01:17:41.402Z,98694.76
2019-01-25T01:20:15.040Z,98704.42
2019-01-25T01:22:43.503Z,98701.42
2019-01-25T01:25:13.329Z,98706.69
2019-01-25T01:27:41.792Z,98696.73
2019-01-25T01:30:13.243Z,98693.73
2019-01-25T01:32:41.638Z,98698.99
2019-01-25T01:35:10.342Z,98697.48
2019-01-25T01:37:38.728Z,98692.98
2019-01-25T01:40:22.002Z,98697.29
2019-01-25T01:42:49.247Z,98701.69
2019-01-25T01:45:18.268Z,98704.81
2019-01-25T01:47:46.724Z,98704.52
2019-01-25T01:50:16.845Z,98710.44
2019-01-25T01:52:45.473Z,98710.98
2019-01-25T01:55:13.988Z,98710.63
2019-01-25T01:57:42.371Z,98710.13
2019-01-25T02:00:16.620Z,98711.09
2019-01-25T02:02:45.183Z,98714.08
2019-01-25T02:05:13.922Z,98713.35
2019-01-25T02:07:42.329Z,98720.38
2019-01-25T02:10:14.473Z,98723.87
2019-01-25T02:12:42.874Z,98728.63
2019-01-25T02:15:14.307Z,98719.43
2019-01-25T02:17:42.972Z,98723.02
2019-01-25T02:20:14.760Z,98721.70
2019-01-25T02:22:43.168Z,98730.59
2019-01-25T02:25:11.564Z,98727.52
2019-01-25T02:27:39.967Z,98727.52
2019-01-25T02:30:17.366Z,98724.52
2019-01-25T02:32:45.770Z,98725.44
2019-01-25T02:35:14.250Z,98719.72
2019-01-25T02:37:42.641Z,98720.18
2019-01-25T02:40:14.264Z,98712.79
2019-01-25T02:42:42.659Z,98709.20
2019-01-25T02:45:12.670Z,98718.50
2019-01-25T02:47:41.233Z,98717.64
2019-01-25T02:50:15.052Z,98716.79
2019-01-25T02:52:43.446Z,98712.85
2019-01-25T02:55:13.070Z,98705.92
2019-01-25T02:57:41.463Z,98714.66
2019-01-25T03:00:15.345Z,98704.60
2019-01-25T03:02:43.738Z,98704.70
2019-01-25T03:05:12.760Z,98705.55
2019-01-25T03:07:41.151Z,98708.64
2019-01-25T03:10:12.822Z,98713.05
2019-01-25T03:12:41.282Z,98714.75
2019-01-25T03:15:15.457Z,98708.28
2019-01-25T03:17:43.853Z,98706.47
2019-01-25T03:20:14.377Z,98705.16
2019-01-25T03:22:42.771Z,98698.23
2019-01-25T03:25:19.694Z,98707.78
2019-01-25T03:27:48.080Z,98709.66
2019-01-25T03:30:18.906Z,98710.97
2019-01-25T03:32:47.392Z,98720.56
2019-01-25T03:35:17.688Z,98710.51
2019-01-25T03:37:46.149Z,98713.14
2019-01-25T03:40:19.623Z,98712.68
2019-01-25T03:42:48.176Z,98718.39
2019-01-25T03:45:17.019Z,98717.17
2019-01-25T03:47:45.473Z,98719.34
2019-01-25T03:50:20.093Z,98718.85
2019-01-25T03:52:48.488Z,98721.97
2019-01-25T03:55:17.111Z,98715.86
2019-01-25T03:57:45.511Z,98718.85
2019-01-25T04:00:16.945Z,98721.12
2019-01-25T04:02:45.418Z,98722.06
2019-01-25T04:05:15.541Z,98723.84
2019-01-25T04:07:44.078Z,98729.00
2019-01-25T04:10:15.663Z,98726.10
2019-01-25T04:12:44.106Z,98733.50
2019-01-25T04:15:15.724Z,98729.55
2019-01-25T04:17:44.122Z,98729.66
2019-01-25T04:20:15.059Z,98731.82
2019-01-25T04:22:43.456Z,98719.59
2019-01-25T04:25:14.576Z,98734.45
2019-01-25T04:27:43.043Z,98729.66
2019-01-25T04:30:14.527Z,98737.53
2019-01-25T04:32:43.018Z,98736.22
2019-01-25T04:35:11.473Z,98737.99
2019-01-25T04:37:39.873Z,98735.86
2019-01-25T04:40:11.489Z,98730.70
2019-01-25T04:42:39.955Z,98726.66
2019-01-25T04:45:14.437Z,98726.27
2019-01-25T04:47:42.891Z,98730.70
2019-01-25T04:50:19.158Z,98731.25
2019-01-25T04:52:47.524Z,98734.64
2019-01-25T04:55:21.197Z,98733.78
2019-01-25T04:57:49.979Z,98733.78
2019-01-25T05:00:21.053Z,98737.72
2019-01-25T05:02:54.246Z,98739.23
2019-01-25T05:05:23.003Z,98740.06
2019-01-25T05:07:54.615Z,98740.52
2019-01-25T05:10:22.995Z,98735.94
2019-01-25T05:12:54.338Z,98733.11
2019-01-25T05:15:22.791Z,98737.81
2019-01-25T05:17:55.149Z,98736.87
2019-01-25T05:20:23.603Z,98739.03
2019-01-25T05:23:00.341Z,98739.89
2019-01-25T05:25:29.190Z,98739.50
2019-01-25T05:27:57.594Z,98736.87
2019-01-25T05:30:26.551Z,98736.50
2019-01-25T05:32:54.946Z,98738.09
2019-01-25T05:35:23.338Z,98737.99
2019-01-25T05:37:51.732Z,98738.58
2019-01-25T05:40:22.658Z,98742.03
2019-01-25T05:42:51.039Z,98738.58
2019-01-25T05:45:19.492Z,98739.40
2019-01-25T05:47:47.871Z,98748.59
2019-01-25T05:50:17.407Z,98753.76
2019-01-25T05:52:45.857Z,98757.14
2019-01-25T05:55:21.975Z,98758.55
2019-01-25T05:57:50.534Z,98759.41
2019-01-25T06:00:23.339Z,98756.38
2019-01-25T06:02:51.788Z,98758.74
2019-01-25T06:05:20.184Z,98759.20
2019-01-25T06:07:48.585Z,98777.99
2019-01-25T06:10:16.972Z,98777.59
2019-01-25T06:12:48.505Z,98777.50
2019-01-25T06:15:16.903Z,98777.50
2019-01-25T06:17:45.287Z,98775.36
2019-01-25T06:20:14.035Z,98775.83
2019-01-25T06:22:42.408Z,98777.23
2019-01-25T06:25:10.882Z,98770.66
2019-01-25T06:27:40.230Z,98775.83
2019-01-25T06:30:16.864Z,98769.71
2019-01-25T06:32:45.321Z,98776.68
2019-01-25T06:35:13.726Z,98782.76
2019-01-25T06:37:42.117Z,98788.11
2019-01-25T06:40:12.350Z,98783.41
2019-01-25T06:42:40.736Z,98786.03
2019-01-25T06:45:11.069Z,98791.78
2019-01-25T06:47:39.523Z,98792.51
2019-01-25T06:50:12.275Z,98793.55
2019-01-25T06:52:40.658Z,98793.45
2019-01-25T06:55:09.803Z,98801.70
2019-01-25T06:57:45.611Z,98791.28
2019-01-25T07:00:17.788Z,98791.87
2019-01-25T07:02:46.175Z,98791.38
2019-01-25T07:05:14.577Z,98788.30
2019-01-25T07:07:44.528Z,98787.44
2019-01-25T07:10:15.969Z,98791.87
2019-01-25T07:12:44.359Z,98790.44
2019-01-25T07:15:14.829Z,98791.44
2019-01-25T07:17:43.220Z,98792.11
2019-01-25T07:20:14.056Z,98794.73
2019-01-25T07:22:42.433Z,98799.08
2019-01-25T07:25:13.070Z,98796.05
2019-01-25T07:27:41.452Z,98799.53
2019-01-25T07:30:12.901Z,98803.11
2019-01-25T07:32:41.448Z,98799.17
2019-01-25T07:35:10.693Z,98797.00
2019-01-25T07:37:39.144Z,98798.41
2019-01-25T07:40:08.890Z,98797.64
2019-01-25T07:42:37.267Z,98802.45
2019-01-25T07:45:11.542Z,98800.73
2019-01-25T07:47:39.977Z,98805.71
2019-01-25T07:50:10.495Z,98802.23
2019-01-25T07:52:39.055Z,98810.47
2019-01-25T07:55:09.693Z,98803.54
2019-01-25T07:57:38.087Z,98811.42
2019-01-25T08:00:12.873Z,98811.88
2019-01-25T08:02:41.259Z,98812.06
2019-01-25T08:05:10.721Z,98805.41
2019-01-25T08:07:39.317Z,98806.63
2019-01-25T08:10:10.774Z,98810.47
2019-01-25T08:12:39.235Z,98813.95
2019-01-25T08:15:10.679Z,98816.59
2019-01-25T08:17:39.057Z,98820.07
2019-01-25T08:20:10.481Z,98820.16
2019-01-25T08:22:38.855Z,98833.75
2019-01-25T08:25:08.866Z,98828.13
2019-01-25T08:27:37.247Z,98830.76
2019-01-25T08:30:22.611Z,98826.05
2019-01-25T08:32:51.373Z,98827.83
2019-01-25T08:35:20.879Z,98828.19
2019-01-25T08:37:49.308Z,98830.14
2019-01-25T08:40:18.462Z,98828.92
2019-01-25T08:42:46.842Z,98831.59
2019-01-25T08:45:16.882Z,98835.17
2019-01-25T08:47:45.268Z,98832.91
2019-01-25T08:50:19.073Z,98833.50
2019-01-25T08:52:47.580Z,98833.50
2019-01-25T08:55:16.197Z,98842.69
2019-01-25T08:57:44.652Z,98833.95
2019-01-25T09:00:15.964Z,98842.20
2019-01-25T09:02:44.354Z,98842.41
2019-01-25T09:05:13.388Z,98845.04
2019-01-25T09:07:41.840Z,98846.36
2019-01-25T09:10:15.590Z,98841.41
2019-01-25T09:12:43.978Z,98836.44
2019-01-25T09:15:15.382Z,98840.01
2019-01-25T09:17:43.764Z,98845.62
2019-01-25T09:20:15.608Z,98842.63
2019-01-25T09:22:43.986Z,98843.00
2019-01-25T09:25:12.625Z,98837.75
2019-01-25T09:27:41.018Z,98839.52
2019-01-25T09:30:18.224Z,98847.40
2019-01-25T09:32:46.686Z,98843.00
2019-01-25T09:35:15.623Z,98845.72
2019-01-25T09:37:44.072Z,98845.27
2019-01-25T09:40:18.187Z,98841.95
2019-01-25T09:42:46.587Z,98848.03
2019-01-25T09:45:15.219Z,98843.73
2019-01-25T09:47:43.599Z,98845.59
2019-01-25T09:50:15.078Z,98852.46
2019-01-25T09:52:43.469Z,98851.52
2019-01-25T09:55:14.490Z,98852.66
2019-01-25T09:57:42.888Z,98850.52
2019-01-25T10:00:23.011Z,98843.55
2019-01-25T10:02:51.400Z,98857.91
2019-01-25T10:05:19.778Z,98863.64
2019-01-25T10:07:48.249Z,98867.86
2019-01-25T10:10:16.819Z,98875.83
2019-01-25T10:12:45.219Z,98870.80
2019-01-25T10:15:19.837Z,98873.25
2019-01-25T10:17:48.231Z,98872.11
2019-01-25T10:20:18.271Z,98876.79
2019-01-25T10:22:46.665Z,98872.70
2019-01-25T10:25:15.047Z,98866.13
2019-01-25T10:27:43.516Z,98858.70
2019-01-25T10:30:15.259Z,98850.83
2019-01-25T10:32:43.653Z,98859.47
2019-01-25T10:35:12.574Z,98849.24
2019-01-25T10:37:40.964Z,98844.88
2019-01-25T10:40:12.566Z,98842.70
2019-01-25T10:42:45.532Z,98832.47
2019-01-25T10:45:16.896Z,98827.67
2019-01-25T10:47:45.465Z,98828.44
2019-01-25T10:50:14.093Z,98816.06
2019-01-25T10:52:42.560Z,98810.72
2019-01-25T10:55:12.088Z,98801.80
2019-01-25T10:57:40.656Z,98801.43
2019-01-25T11:00:17.654Z,98805.73
2019-01-25T11:02:46.037Z,98803.59
2019-01-25T11:05:17.277Z,98815.70
2019-01-25T11:07:45.720Z,98822.36
2019-01-25T11:10:14.343Z,98828.83
2019-01-25T11:12:43.180Z,98824.80
2019-01-25T11:15:20.508Z,98829.50
2019-01-25T11:17:49.236Z,98832.44
2019-01-25T11:20:22.483Z,98829.31
2019-01-25T11:22:50.944Z,98825.28
2019-01-25T11:25:25.213Z,98824.83
2019-01-25T11:27:53.615Z,98822.59
2019-01-25T11:30:22.139Z,98831.61
2019-01-25T11:32:50.534Z,98826.35
2019-01-25T11:35:18.913Z,98824.39
2019-01-25T11:37:47.319Z,98821.58
2019-01-25T11:40:21.251Z,98811.83
2019-01-25T11:42:49.641Z,98800.94
2019-01-25T11:45:18.191Z,98797.45
2019-01-25T11:47:46.719Z,98806.19
2019-01-25T11:50:17.921Z,98801.78
2019-01-25T11:52:46.359Z,98793.25
2019-01-25T11:55:16.786Z,98791.08
2019-01-25T11:57:45.451Z,98790.98
2019-01-25T12:00:19.564Z,98785.73
2019-01-25T12:02:48.032Z,98787.34
2019-01-25T12:05:19.633Z,98781.53
2019-01-25T12:07:48.021Z,98782.75
2019-01-25T12:10:19.502Z,98784.42
2019-01-25T12:12:47.896Z,98774.77
2019-01-25T12:15:17.224Z,98782.47
2019-01-25T12:17:45.787Z,98777.11
2019-01-25T12:20:17.518Z,98779.09
2019-01-25T12:22:46.020Z,98778.07
2019-01-25T12:25:14.402Z,98792.80
2019-01-25T12:27:42.805Z,98782.94
2019-01-25T12:30:14.234Z,98788.20
2019-01-25T12:32:42.632Z,98788.04
2019-01-25T12:35:12.758Z,98784.95
2019-01-25T12:37:41.155Z,98784.20
2019-01-25T12:40:17.639Z,98783.73
2019-01-25T12:42:46.033Z,98791.98
2019-01-25T12:45:20.224Z,98792.19
2019-01-25T12:47:48.610Z,98799.33
2019-01-25T12:50:22.848Z,98799.59
2019-01-25T12:52:51.248Z,98794.53
2019-01-25T12:55:19.772Z,98789.17
2019-01-25T12:57:48.172Z,98790.95
2019-01-25T13:00:20.739Z,98789.07
2019-01-25T13:02:49.136Z,98779.66
2019-01-25T13:05:19.363Z,98773.84
2019-01-25T13:07:47.846Z,98770.34
2019-01-25T13:10:22.267Z,98765.55
2019-01-25T13:12:50.679Z,98760.02
2019-01-25T13:15:19.082Z,98754.19
2019-01-25T13:17:47.486Z,98761.98
2019-01-25T13:20:21.189Z,98766.59
2019-01-25T13:22:49.578Z,98765.73
2019-01-25T13:25:17.967Z,98764.31
2019-01-25T13:27:46.536Z,98759.34
2019-01-25T13:30:19.392Z,98755.66
2019-01-25T13:32:47.947Z,98750.69
2019-01-25T13:35:16.470Z,98736.20
2019-01-25T13:37:44.866Z,98729.13
2019-01-25T13:40:15.807Z,98723.41
2019-01-25T13:42:45.231Z,98727.91
2019-01-25T13:45:18.281Z,98736.78
2019-01-25T13:47:46.764Z,98744.33
2019-01-25T13:50:17.934Z,98741.14
2019-01-25T13:52:46.502Z,98748.19
2019-01-25T13:55:16.433Z,98745.56
2019-01-25T13:57:45.077Z,98743.67
2019-01-25T14:00:23.021Z,98732.48
2019-01-25T14:02:51.532Z,98736.03
2019-01-25T14:05:19.925Z,98734.25
2019-01-25T14:07:48.380Z,98725.43
2019-01-25T14:10:22.245Z,98726.81
2019-01-25T14:12:51.719Z,98727.31
2019-01-25T14:15:20.099Z,98716.58
2019-01-25T14:17:48.483Z,98719.77
2019-01-25T14:20:25.798Z,98717.33
2019-01-25T14:22:54.196Z,98713.63
2019-01-25T14:25:22.654Z,98706.48
2019-01-25T14:27:51.033Z,98704.20
2019-01-25T14:30:28.133Z,98703.48
2019-01-25T14:32:56.523Z,98699.53
2019-01-25T14:35:24.908Z,98702.53
2019-01-25T14:37:53.285Z,98697.27
2019-01-25T14:40:22.670Z,98685.59
2019-01-25T14:42:51.049Z,98672.14
2019-01-25T14:45:27.972Z,98673.25
2019-01-25T14:47:56.426Z,98673.63
2019-01-25T14:50:30.774Z,98663.56
2019-01-25T14:53:01.319Z,98667.16
2019-01-25T14:55:29.784Z,98655.30
2019-01-25T14:57:58.387Z,98660.18
2019-01-25T15:00:26.777Z,98660.18
2019-01-25T15:02:56.126Z,98657.94
2019-01-25T15:05:26.509Z,98655.09
2019-01-25T15:07:54.916Z,98655.48
2019-01-25T15:10:24.842Z,98650.29
2019-01-25T15:12:56.083Z,98648.15
2019-01-25T15:15:26.676Z,98648.44
2019-01-25T15:17:55.200Z,98651.43
2019-01-25T15:20:26.531Z,98651.35
2019-01-25T15:22:54.917Z,98656.52
2019-01-25T15:25:23.380Z,98660.93
2019-01-25T15:27:51.761Z,98658.87
2019-01-25T15:30:28.049Z,98657.55
2019-01-25T15:32:56.572Z,98655.38
2019-01-25T15:35:25.507Z,98660.57
2019-01-25T15:37:53.882Z,98663.56
2019-01-25T15:40:22.930Z,98673.03
2019-01-25T15:42:52.364Z,98669.47
2019-01-25T15:45:22.200Z,98672.00
2019-01-25T15:47:50.819Z,98675.48
2019-01-25T15:50:27.303Z,98670.69
2019-01-25T15:52:55.690Z,98670.69
2019-01-25T15:55:25.643Z,98664.84
2019-01-25T15:57:54.024Z,98661.25
2019-01-25T16:00:27.141Z,98653.63
2019-01-25T16:02:55.588Z,98643.34
2019-01-25T16:05:24.723Z,98634.69
2019-01-25T16:07:53.372Z,98637.97
2019-01-25T16:10:22.710Z,98645.41
2019-01-25T16:12:51.426Z,98651.53
2019-01-25T16:15:24.922Z,98647.94
2019-01-25T16:17:53.436Z,98650.85
2019-01-25T16:20:21.905Z,98652.52
2019-01-25T16:22:52.128Z,98650.36
2019-01-25T16:25:23.727Z,98648.22
2019-01-25T16:27:52.110Z,98629.77
2019-01-25T16:30:23.383Z,98632.30
2019-01-25T16:32:51.794Z,98641.41
2019-01-25T16:35:20.192Z,98637.81
2019-01-25T16:37:48.568Z,98639.52
2019-01-25T16:40:19.098Z,98632.36
2019-01-25T16:42:47.475Z,98630.33
2019-01-25T16:45:18.604Z,98637.55
2019-01-25T16:47:46.979Z,98633.99
2019-01-25T16:50:23.398Z,98631.82
2019-01-25T16:52:45.955Z,98638.58
2019-01-25T16:55:15.884Z,98635.73
2019-01-25T16:57:44.264Z,98625.08
2019-01-25T17:00:24.254Z,98632.52
2019-01-25T17:02:52.634Z,98621.40
2019-01-25T17:05:21.391Z,98621.42
2019-01-25T17:07:49.768Z,98617.86
2019-01-25T17:10:18.293Z,98614.72
2019-01-25T17:12:46.674Z,98617.80
2019-01-25T17:15:16.609Z,98613.30
2019-01-25T17:17:45.155Z,98613.56
2019-01-25T17:20:21.462Z,98603.84
2019-01-25T17:22:49.251Z,98606.48
2019-01-25T17:25:17.713Z,98608.36
2019-01-25T17:27:46.340Z,98607.13
2019-01-25T17:30:26.515Z,98594.06
2019-01-25T17:32:56.437Z,98591.66
2019-01-25T17:35:24.897Z,98586.16
2019-01-25T17:37:53.406Z,98598.64
2019-01-25T17:40:37.243Z,98602.48
2019-01-25T17:43:05.745Z,98600.19
2019-01-25T17:45:34.079Z,98600.19
2019-01-25T17:48:02.450Z,98596.34
2019-01-25T17:50:30.841Z,98597.77
2019-01-25T17:52:59.303Z,98598.28
2019-01-25T17:55:27.698Z,98597.97
2019-01-25T17:57:56.083Z,98599.88
2019-01-25T18:00:31.782Z,98595.69
2019-01-25T18:03:00.380Z,98590.17
2019-01-25T18:05:28.780Z,98591.30
2019-01-25T18:07:57.163Z,98585.95
2019-01-25T18:10:26.205Z,98583.92
2019-01-25T18:12:54.588Z,98580.11
2019-01-25T18:15:22.995Z,98571.73
2019-01-25T18:17:51.380Z,98568.50
2019-01-25T18:20:21.918Z,98567.21
2019-01-25T18:22:50.370Z,98570.34
2019-01-25T18:25:34.015Z,98573.14
2019-01-25T18:28:05.383Z,98570.88
2019-01-25T18:30:39.707Z,98559.22
2019-01-25T18:33:08.165Z,98555.38
2019-01-25T18:35:36.559Z,98548.78
2019-01-25T18:38:05.514Z,98549.12
2019-01-25T18:40:33.892Z,98559.84
2019-01-25T18:43:02.278Z,98553.00
2019-01-25T18:45:30.668Z,98552.76
2019-01-25T18:47:59.096Z,98538.25
2019-01-25T18:50:27.501Z,98532.98
2019-01-25T18:52:55.894Z,98536.59
2019-01-25T18:55:25.727Z,98541.62
2019-01-25T18:57:54.113Z,98553.06
2019-01-25T19:00:22.838Z,98550.66
2019-01-25T19:02:51.307Z,98542.12
2019-01-25T19:05:19.752Z,98545.77
2019-01-25T19:07:48.149Z,98532.05
2019-01-25T19:10:19.341Z,98538.79
2019-01-25T19:12:47.730Z,98535.78
2019-01-25T19:15:32.681Z,98529.65
2019-01-25T19:18:01.064Z,98530.98
2019-01-25T19:20:29.611Z,98515.84
2019-01-25T19:22:58.011Z,98513.08
2019-01-25T19:25:26.395Z,98510.56
2019-01-25T19:27:54.796Z,98509.97
2019-01-25T19:30:31.676Z,98505.76
2019-01-25T19:33:00.509Z,98506.01
2019-01-25T19:35:29.062Z,98503.11
2019-01-25T19:37:57.800Z,98499.40
2019-01-25T19:40:31.895Z,98497.70
2019-01-25T19:43:00.545Z,98505.86
2019-01-25T19:45:28.920Z,98499.71
2019-01-25T19:47:57.581Z,98498.39
2019-01-25T19:50:27.464Z,98494.89
2019-01-25T19:52:55.854Z,98493.69
2019-01-25T19:55:26.671Z,98492.61
2019-01-25T19:57:55.496Z,98489.72
2019-01-25T20:00:32.887Z,98486.09
2019-01-25T20:03:01.338Z,98484.30
2019-01-25T20:05:33.119Z,98481.64
2019-01-25T20:08:01.590Z,98483.44
2019-01-25T20:10:30.032Z,98484.16
2019-01-25T20:12:58.487Z,98477.89
2019-01-25T20:15:27.917Z,98480.19
2019-01-25T20:17:56.369Z,98482.45
2019-01-25T20:20:27.724Z,98474.75
2019-01-25T20:22:56.184Z,98475.95
2019-01-25T20:25:24.574Z,98475.10
2019-01-25T20:27:53.125Z,98476.30
2019-01-25T20:30:29.657Z,98475.09
2019-01-25T20:32:58.437Z,98480.86
2019-01-25T20:35:29.348Z,98479.41
2019-01-25T20:37:57.738Z,98480.25
2019-01-25T20:40:26.109Z,98478.93
2019-01-25T20:42:54.506Z,98471.70
2019-01-25T20:45:27.326Z,98471.58
2019-01-25T20:47:55.707Z,98476.48
2019-01-25T20:50:26.521Z,98465.17
2019-01-25T20:52:54.908Z,98467.59
2019-01-25T20:55:23.627Z,98467.95
2019-01-25T20:57:52.086Z,98459.53
2019-01-25T21:00:23.143Z,98455.44
2019-01-25T21:02:51.591Z,98455.91
2019-01-25T21:05:20.315Z,98446.77
2019-01-25T21:07:48.711Z,98459.06
2019-01-25T21:10:19.801Z,98454.59
2019-01-25T21:12:48.427Z,98461.71
2019-01-25T21:15:19.443Z,98465.05
2019-01-25T21:17:47.892Z,98465.55
2019-01-25T21:20:18.990Z,98463.13
2019-01-25T21:22:47.919Z,98450.53
2019-01-25T21:25:16.475Z,98449.81
2019-01-25T21:27:45.062Z,98447.38
2019-01-25T21:30:22.360Z,98433.45
2019-01-25T21:32:50.910Z,98428.27
2019-01-25T21:35:19.360Z,98421.83
2019-01-25T21:37:47.830Z,98421.83
2019-01-25T21:40:18.748Z,98421.09
2019-01-25T21:42:47.212Z,98420.58
2019-01-25T21:45:18.472Z,98431.17
2019-01-25T21:47:46.936Z,98426.48
2019-01-25T21:50:21.228Z,98413.75
2019-01-25T21:52:49.851Z,98413.25
2019-01-25T21:55:18.298Z,98412.56
2019-01-25T21:57:47.689Z,98411.34
2019-01-25T22:00:21.492Z,98409.20
2019-01-25T22:02:49.892Z,98408.82
2019-01-25T22:05:18.502Z,98408.82
2019-01-25T22:07:46.908Z,98412.11
2019-01-25T22:10:26.712Z,98414.38
2019-01-25T22:12:55.259Z,98405.11
2019-01-25T22:15:23.816Z,98408.61
2019-01-25T22:17:52.204Z,98410.88
2019-01-25T22:20:26.211Z,98411.52
2019-01-25T22:22:54.624Z,98405.72
2019-01-25T22:25:23.072Z,98407.17
2019-01-25T22:27:52.604Z,98407.55
2019-01-25T22:30:25.984Z,98399.23
2019-01-25T22:32:54.984Z,98395.77
2019-01-25T22:35:23.494Z,98400.80
2019-01-25T22:37:53.173Z,98398.76
2019-01-25T22:40:26.764Z,98399.61
2019-01-25T22:42:55.165Z,98392.75
2019-01-25T22:45:26.321Z,98398.30
2019-01-25T22:47:55.478Z,98392.55
2019-01-25T22:50:26.461Z,98395.06
2019-01-25T22:52:54.923Z,98398.69
2019-01-25T22:55:24.145Z,98404.93
2019-01-25T22:57:52.587Z,98399.30
2019-01-25T23:00:46.406Z,98387.99
2019-01-25T23:03:17.427Z,98398.92
2019-01-25T23:08:34.851Z,98381.52
2019-01-25T23:11:03.266Z,98376.82
2019-01-25T23:13:31.721Z,98375.16
2019-01-25T23:16:06.297Z,98382.72
2019-01-25T23:18:30.213Z,98372.64
2019-01-25T23:20:58.593Z,98370.47
2019-01-25T23:23:26.979Z,98377.93
2019-01-25T23:25:55.517Z,98387.29
2019-01-25T23:28:23.989Z,98388.39
2019-01-25T23:30:52.370Z,98390.19
2019-01-25T23:33:20.758Z,98383.23
2019-01-25T23:35:49.182Z,98384.18
2019-01-25T23:38:17.518Z,98377.56
2019-01-25T23:40:45.913Z,98371.09
2019-01-25T23:43:14.892Z,98374.71
2019-01-25T23:45:43.290Z,98371.22
2019-01-25T23:48:11.680Z,98373.64
2019-01-25T23:50:40.079Z,98370.15
2019-01-25T23:53:08.458Z,98378.55
2019-01-25T23:55:36.843Z,98386.02
2019-01-25T23:58:05.293Z,98381.20
